Flight Track Log - Related Links

Times and Time Zones

All times are in EDT time to prevent confusion due to time zone crossing. See the FDX2300 flight status page for this flight to view local times or setup timezone preferences in your user account.

Time Position Orientation Groundspeed Altitude Reporting Facility
EDT Latitude Longitude Course Direction KTS MPH feet Rate Location/Type
Fri 11:16:12 PM 41.8737 -91.7537 214° Southwest 203 234 3,000  Level FlightAware ADS-B (YPAD / ADL)
Fri 11:16:32 PM 41.8531 -91.7593 178° South 244 281 3,800 1,579 Climbing FlightAware ADS-B (YPAD / ADL)
Fri 11:16:50 PM 41.8475 -91.7589 158° South 217 250 4,000 3,353 Climbing Chicago Center
Fri 11:17:06 PM 41.8142 -91.7482 165° South 281 323 5,700 5,314 Climbing FlightAware ADS-B (YPAD / ADL)
Fri 11:17:25 PM 41.7876 -91.7358 159° South 287 330 7,100 3,733 Climbing FlightAware ADS-B (YPAD / ADL)
Fri 11:17:51 PM 41.7581 -91.7219 163° South 276 318 8,500 3,529 Climbing Chicago Center
Fri 11:17:59 PM 41.7490 -91.7174 162° South 303 349 9,100 2,897 Climbing FlightAware ADS-B (YPAD / ADL)
Fri 11:18:20 PM 41.7140 -91.7019 161° South 330 380 9,900 1,698 Climbing FlightAware ADS-B (YPAD / ADL)
Fri 11:18:52 PM 41.6700 -91.6833 162° South 324 373 10,600 1,304 Climbing Chicago Center
Fri 11:19:06 PM 41.6388 -91.6737 166° South 407 468 10,900 2,754 Climbing FlightAware ADS-B (YPAD / ADL)
Fri 11:19:53 PM 41.5611 -91.6442 165° South 400 460 13,400 3,385 Climbing Chicago Center
Fri 11:20:24 PM 41.4973 -91.6197 164° South 433 498 15,300 3,148 Climbing FlightAware ADS-B (YPAD / ADL)
Fri 11:20:54 PM 41.4486 -91.5997 164° South 420 483 16,600 2,769 Climbing Chicago Center
Fri 11:21:55 PM 41.3286 -91.5536 164° South 444 511 19,500 2,754 Climbing Chicago Center
Fri 11:22:00 PM 41.3354 -91.5344 158° South  Level FlightAware Approximate
Fri 11:22:56 PM 41.2150 -91.5111 164° South 461 531 22,200  Level Chicago Center
Fri 11:23:56 PM 41.0636 -91.4539 164° South 470 541 25,200 2,331 Climbing Chicago Center
Fri 11:24:57 PM 40.9467 -91.4103 164° South 486 559 26,900 1,820 Climbing Chicago Center
Fri 11:25:58 PM 40.8117 -91.3603 164° South 501 577 28,900 2,262 Climbing Chicago Center
Fri 11:26:59 PM 40.6758 -91.3086 164° South 508 585 31,500 2,508 Climbing Chicago Center
Fri 11:28:00 PM 40.5247 -91.2653 168° South 505 581 34,000 2,311 Climbing Chicago Center
Fri 11:29:01 PM 40.3919 -91.2606 178° South 483 556 36,200 1,488 Climbing Chicago Center
Fri 11:30:01 PM 40.2603 -91.2636 181° South 476 548 37,000 397 Climbing Chicago Center
Fri 11:31:02 PM 40.1119 -91.2653 180° South 486 559 37,000  Level Chicago Center
Fri 11:32:03 PM 39.9778 -91.2661 180° South 482 555 37,000  Level Chicago Center
Fri 11:33:14 PM 39.8192 -91.2675 180° South 479 551 37,000  Level Kansas City Center
Fri 11:34:15 PM 39.7033 -91.2686 180° South 478 550 37,000  Level Kansas City Center
Fri 11:35:16 PM 39.5731 -91.2692 180° South 475 547 37,000  Level Kansas City Center
Fri 11:36:17 PM 39.4447 -91.2700 180° South 469 540 37,000  Level Kansas City Center
Fri 11:37:18 PM 39.2917 -91.2708 180° South 466 536 37,000  Level Kansas City Center
Fri 11:38:19 PM 39.1644 -91.2717 180° South 462 532 37,000  Level Kansas City Center
Fri 11:39:20 PM 39.0356 -91.2719 180° South 462 532 37,000  Level Kansas City Center
Fri 11:40:21 PM 38.9078 -91.2731 180° South 462 532 37,000  Level Kansas City Center
Fri 11:41:21 PM 38.7806 -91.2742 180° South 462 532 37,000  Level Kansas City Center
Fri 11:42:22 PM 38.6531 -91.2747 180° South 462 532 37,000  Level Kansas City Center
Fri 11:43:23 PM 38.5261 -91.2761 180° South 462 532 37,000  Level Kansas City Center
Fri 11:44:24 PM 38.4003 -91.2775 180° South 461 531 37,000  Level Kansas City Center
Fri 11:45:25 PM 38.2731 -91.2783 180° South 460 529 37,000  Level Kansas City Center
Fri 11:46:26 PM 38.1206 -91.2800 180° South 460 529 37,000  Level Kansas City Center
Fri 11:47:27 PM 37.9942 -91.2819 181° South 457 526 37,000  Level Kansas City Center
Fri 11:48:29 PM 37.8664 -91.2828 180° South 457 526 37,000  Level Kansas City Center
Fri 11:49:29 PM 37.7400 -91.2850 181° South 454 522 37,000  Level Kansas City Center
Fri 11:50:30 PM 37.6139 -91.2850 180° South 453 521 37,000  Level Kansas City Center
Fri 11:51:31 PM 37.4864 -91.2872 181° South 453 521 37,000  Level Kansas City Center
Fri 11:52:31 PM 37.3589 -91.2875 180° South 453 521 37,000  Level Kansas City Center
Fri 11:57:59 PM 36.6849 -91.3680 188° South 436 502 37,000  Level FlightAware ADS-B
Fri 11:58:41 PM 36.6033 -91.3828 190° South 433 498 37,000 -400 Level FlightAware ADS-B
Fri 11:58:59 PM 36.5855 -91.3876 202° Southwest 407 468 36,600 -1,967 Descending FlightAware ADS-B
Fri 11:59:42 PM 36.5084 -91.4327 209° Southwest 396 456 35,000 -2,819 Descending FlightAware ADS-B
Sat 12:00:22 AM 36.4341 -91.4812 206° Southwest 377 434 32,700 -3,975 Descending FlightAware ADS-B
Sat 12:01:02 AM 36.3697 -91.5233 209° Southwest 384 442 29,700 -3,375 Descending FlightAware ADS-B
Sat 12:01:42 AM 36.3121 -91.5641 210° Southwest 377 434 28,200 -1,899 Descending FlightAware ADS-B
Sat 12:02:21 AM 36.2518 -91.6080 210° Southwest 372 428 27,200 -900 Descending FlightAware ADS-B
Sat 12:03:02 AM 36.1879 -91.6555 211° Southwest 391 450 27,000 -148 Descending FlightAware ADS-B
Sat 12:03:42 AM 36.1205 -91.6920 192° South 421 484 27,000 -764 Level FlightAware ADS-B
Sat 12:03:57 AM 36.0954 -91.6964 180° South 426 490 26,300 -2,857 Descending FlightAware ADS-B
Sat 12:04:24 AM 36.0506 -91.6941 168° South 450 518 25,000 -2,739 Descending FlightAware ADS-B
Sat 12:04:43 AM 36.0042 -91.6771 156° South 456 525 24,200 -1,500 Descending FlightAware ADS-B
Sat 12:05:04 AM 35.9630 -91.6462 143° Southeast 453 521 24,000 -305 Descending FlightAware ADS-B
Sat 12:05:42 AM 35.9031 -91.5775 132° Southeast 457 526 23,900 -923 Descending FlightAware ADS-B
Sat 12:06:22 AM 35.8548 -91.4974 125° Southeast 446 513 22,800 -1,606 Descending FlightAware ADS-B
Sat 12:06:53 AM 35.8250 -91.4447 125° Southeast 453 521 22,000 -1,957 Descending Memphis Center
Sat 12:07:54 AM 35.7508 -91.3147 125° Southeast 439 505 19,800 -2,066 Descending Memphis Center
Sat 12:08:55 AM 35.6822 -91.1983 126° Southeast 427 491 17,800 -1,869 Descending Memphis Center
Sat 12:09:56 AM 35.6186 -91.0867 125° Southeast 410 472 16,000 -1,884 Descending Memphis Center
Sat 12:10:56 AM 35.5556 -90.9792 126° Southeast 396 456 14,000 -1,785 Descending Memphis Center
Sat 12:11:57 AM 35.4964 -90.8747 125° Southeast 383 441 12,400 -1,672 Descending Memphis Center
Sat 12:12:58 AM 35.4608 -90.7622 111° Southeast 362 417 10,600 -1,131 Descending Memphis Center
Sat 12:13:59 AM 35.4292 -90.6592 111° Southeast 334 384 10,100 -295 Descending Memphis Center
Sat 12:15:00 AM 35.4472 -90.5694 76° East 288 331 10,000 -99 Descending Memphis Center
Sat 12:16:00 AM 35.4508 -90.4769 87° East 279 321 9,900 -595 Descending Memphis Center
Sat 12:17:01 AM 35.4453 -90.3900 94° East 260 299 8,800 -1,082 Descending Memphis Center
Sat 12:18:02 AM 35.4425 -90.3056 92° East 254 292 7,700 -1,082 Descending Memphis Center
Sat 12:19:03 AM 35.4392 -90.2236 93° East 246 283 6,600 -1,082 Descending Memphis Center
Sat 12:20:04 AM 35.4181 -90.1475 109° East 243 280 5,500 -1,140 Descending Memphis Center
Sat 12:21:04 AM 35.3886 -90.0775 117° Southeast 259 298 4,300 -744 Descending Memphis Center
Sat 12:22:05 AM 35.3350 -90.0319 145° Southeast 237 273 4,000 -148 Descending Memphis Center
Sat 12:23:06 AM 35.2903 -89.9967 147° Southeast 205 236 4,000  Level Memphis Center
Sat 12:24:09 AM 35.2333 -89.9833 169° South 177 204 4,000 -488 Level KMEM
Sat 12:25:09 AM 35.1833 -89.9833 180° South 175 201 3,000 -952 Descending KMEM
Sat 12:26:15 AM 35.1333 -89.9833 180° South 161 185 2,000 -793 Descending KMEM
Sat 12:27:10 AM 35.1000 -89.9833 180° South 110 127 1,400 -632 Descending KMEM
Sat 12:28:09 AM 35.0667 -89.9833 180° South 106 122 800 -610 Descending KMEM

Login

Don't have an account? Register now (free) for customized features, flight alerts, and more!